Caguas, Puerto Rico
Current Conditions -  °F | °C
As of 6:50 PM on Friday 28 Nov 2014 (Local Time) from TJBQ Reporting Station
Broken Clouds Broken Clouds  
Wind Chill: 77°   Ceiling: 2900
Heat Index: 78°   Visibility: 10mi
Dew Point: 72°   Wind: 5mph
Humidity: 83%   Direction: 90°E
Pressure: 29.96"   Gusts: NA
Location:  18.2°N, 66.6°W
Report Text: TJBQ 282250Z 09004KT 10SM SCT023 BKN029 BKN048 25/22 A2996 RMK RWY08 ATIS B
Loading
Personal Weather Stations






























Interactive Weather Map New forecast layout! Learn more

10-Day Weather Forecast

Advertisements
Track Severe Weather on mobile